METAR Data
IDs: Format: Raw Decoded Include TAF

Data at: 2326 UTC 25 Oct 2021

PANW 252256Z AUTO 36010G20KT 10SM FEW020 OVC043 M01/M05 A2923 RMK AO2 SLP905 T10111050 FZRANO
PANW 252156Z AUTO 36016G22KT 10SM FEW017 OVC041 M01/M05 A2923 RMK AO2 SLP905 T10111050 FZRANO
PANW 252056Z AUTO 36014G22KT 10SM BKN030 OVC039 M01/M05 A2922 RMK AO2 SLP903 T10111050 53004 FZRANO
PANW 251956Z AUTO 36015G20KT 10SM OVC030 M02/M05 A2922 RMK AO2 SLP903 T10221050 FZRANO
PANW 251856Z AUTO 35014G19KT 10SM OVC028 M03/M06 A2921 RMK AO2 SLP901 T10281056 FZRANO
PANW 251756Z AUTO 35012G17KT 10SM OVC026 M03/M06 A2921 RMK AO2 SLP901 T10281056 11028 21039 58001 FZRANO
PANW 251656Z AUTO 35014G19KT 10SM OVC026 M03/M06 A2922 RMK AO2 SLP903 T10281056 FZRANO
PANW 251556Z AUTO 35012G18KT 10SM OVC022 M03/M06 A2922 RMK AO2 SLP902 T10331056 FZRANO
PANW 251456Z AUTO 36012G18KT 10SM OVC024 M03/M05 A2922 RMK AO2 SLP901 T10281050 58012 FZRANO
PANW 251356Z AUTO 36009G16KT 10SM OVC022 M03/M05 A2923 RMK AO2 SLP905 T10281050 FZRANO
PANW 251256Z AUTO 35012G17KT 10SM OVC020 M03/M05 A2924 RMK AO2 SLP909 T10331050 FZRANO
PANW 251156Z AUTO 35011G19KT 10SM OVC020 M04/M06 A2925 RMK AO2 SLP913 T10391056 11033 21044 58009 FZRANO
PANW 251056Z AUTO 35011KT 10SM BKN022 M04/M06 A2927 RMK AO2 SLP919 T10441056 FZRANO
PANW 250956Z AUTO 35010KT 10SM CLR M04/M06 A2928 RMK AO2 SLP923 T10441061 FZRANO
PANW 250856Z AUTO 35010KT 10SM CLR M04/M06 A2930 RMK AO2 SLP929 T10391061 400061039 56014 FZRANO
PANW 250756Z AUTO 35010KT 10SM OVC050 M04/M06 A2931 RMK AO2 SLP933 T10391056 FZRANO
PANW 250656Z AUTO 35009KT 10SM CLR M04/M05 A2932 RMK AO2 SLP937 T10391050 FZRANO
PANW 250556Z AUTO 35008KT 10SM SCT030 M03/M04 A2934 RMK AO2 SLP943 60000 T10331039 10000 21033 56014 FZRANO
PANW 250456Z AUTO 36008KT 10SM FEW031 M03/M03 A2936 RMK AO2 SLP949 T10281033 FZRANO
PANW 250451Z AUTO 36008KT 10SM SCT031 M03/M03 A2936 RMK AO2 FZRANO
PANW 250356Z AUTO 36007KT 10SM OVC027 M02/M03 A2938 RMK AO2 SLP957 T10221028 FZRANO
PANW 250324Z AUTO 36007KT 10SM BKN029 M02/M03 A2939 RMK AO2 FZRANO
PANW 250256Z AUTO 36007KT 10SM SCT037 M02/M02 A2940 RMK AO2 SLP965 60000 T10171022 58013 FZRANO
PANW 250209Z AUTO 01009KT 10SM SCT009 M01/M02 A2941 RMK AO2 FZRANO
PANW 250156Z AUTO 01008KT 10SM BKN009 M01/M02 A2942 RMK AO2 UPB0057E07B26E33SNB07E26 SLP969 P0000 T10061017 FZRANO
PANW 250056Z AUTO 36007KT 10SM BKN009 BKN039 OVC050 M01/M01 A2944 RMK AO2 UPB12E17SNE12 SLP977 P0000 T10061011 FZRANO
PANW 250051Z AUTO 36009KT 10SM SCT009 BKN039 OVC050 00/M02 A2944 RMK AO2 UPB12E17SNE12 P0000 FZRANO
PANW 242356Z AUTO 36010KT 9SM -SN BKN007 OVC035 M01/M01 A2946 RMK AO2 UPB2258E03SNE2258B03 CIG 005V010 SLP984 P0000 60000 T10061011 10000 21006 58015 FZRANO
PANW 242306Z AUTO 01009KT 7SM -SN BKN007 BKN016 OVC048 00/M01 A2947 RMK AO2 UPB2258E03SNE2258B03 CIG 005V012 P0000 FZRANO
PANW 242256Z AUTO 36009KT 9SM -SN BKN005 BKN014 OVC040 00/M01 A2948 RMK AO2 CIG 004V008 SLP990 P0000 T00001006 FZRANO
PANW 242211Z AUTO 36008KT 5SM -SN BR BKN005 BKN013 OVC034 00/M01 A2949 RMK AO2 CIG 004V008 P0000 FZRANO
PANW 242200Z AUTO 35006KT 2SM -SN BR BKN005 OVC015 00/M01 A2950 RMK AO2 VIS 1 1/4V3 P0000 FZRANO
PANW 242156Z AUTO 35006KT 1 1/2SM -SN BR SCT005 OVC015 M01/M01 A2950 RMK AO2 VIS 1V2 1/2 SLP997 P0000 T10061006 FZRANO
PANW 242140Z AUTO 35008KT 1 1/4SM -SN BR FEW007 BKN015 OVC021 M01/M01 A2950 RMK AO2 P0000 FZRANO
PANW 242138Z AUTO 35007KT 1SM -SN BR FEW007 BKN013 OVC021 M01/M01 A2950 RMK AO2 P0000 FZRANO
PANW 242130Z AUTO 35008KT 1 3/4SM -SN BR FEW007 BKN015 OVC029 M01/M01 A2950 RMK AO2 VIS 1V5 P0000 FZRANO
PANW 242056Z AUTO 35011KT 3SM -SN BR SCT009 BKN024 OVC035 M01/M01 A2951 RMK AO2 UPB05E11SNB11 SLP000 P0000 60000 T10061011 50000 FZRANO
PANW 242053Z AUTO 35010KT 3SM -SN BR SCT009 BKN024 OVC033 M01/M01 A2951 RMK AO2 UPB05E11SNB11 P0000 FZRANO
PANW 242039Z AUTO 36009KT 2 1/2SM -SN BR SCT009 BKN024 OVC035 00/M01 A2951 RMK AO2 VIS 1 1/2V5 UPB05E11SNB11 P0000 FZRANO
PANW 241956Z AUTO 36006KT 10SM FEW008 BKN045 OVC065 00/M01 A2951 RMK AO2 UPB38E44SNE38 SLP002 P0000 T00001011 FZRANO
PANW 241917Z AUTO 01006KT 9SM -SN FEW008 OVC027 00/M01 A2951 RMK AO2 P0000 FZRANO
PANW 241856Z AUTO 01007KT 9SM -SN BKN027 BKN035 OVC060 00/M01 A2951 RMK AO2 UPE00B38E43SNB43 SLP000 P0000 T00001011 FZRANO
PANW 241756Z AUTO 36006KT 10SM UP BKN038 OVC060 00/M01 A2951 RMK AO2 UPB02E17B47SNB17E47 SLP002 P0000 60000 T00001011 10000 20000 50004 FZRANO
PANW 241656Z AUTO 35008KT 10SM BKN037 BKN048 OVC075 00/M01 A2952 RMK AO2 UPB09E13SNE09 SLP002 P0000 T00001011 FZRANO
PANW 241556Z AUTO 34007KT 9SM -SN FEW034 OVC070 00/M01 A2951 RMK AO2 UPE00SNB00 SLP001 P0000 T00001011 FZRANO
PANW 241537Z AUTO 36006KT 9SM -SN BKN032 OVC070 00/M01 A2951 RMK AO2 UPE00SNB00 P0000 FZRANO
PANW 241529Z AUTO 35007KT 9SM -SN BKN029 OVC037 00/M01 A2950 RMK AO2 UPE00SNB00 P0000 FZRANO
PANW 241456Z AUTO 33007KT 10SM UP OVC039 00/M01 A2950 RMK AO2 UPB20SNE20 SLP997 P0000 60000 T00001011 51014 FZRANO
PANW 241356Z AUTO 34007KT 9SM -SN SCT029 OVC034 00/M01 A2949 RMK AO2 SLP992 P0000 T00001011 FZRANO
PANW 241329Z AUTO 34005KT 9SM -SN FEW005 OVC030 00/M01 A2949 RMK AO2 P0000 FZRANO
PANW 241256Z AUTO 35005KT 9SM -SN FEW005 BKN027 OVC090 00/M01 A2948 RMK AO2 RAE1159UPB1159E04B38E42SNB42 SLP990 P0000 T00001006 FZRANO
PANW 241252Z AUTO 35005KT 8SM -SN FEW007 BKN027 OVC090 00/M01 A2948 RMK AO2 RAE1159UPB1159E04B38E42SNB42 P0000 FZRANO
PANW 241156Z AUTO 02005KT 10SM -RA SCT024 OVC075 00/M02 A2946 RMK AO2 RAB52 SLP982 P0000 60000 T00001017 10006 21022 51024 FZRANO